sensor_id;sensor_type;location;lat;lon;timestamp;P1;durP1;ratioP1;P2;durP2;ratioP2
7875;SDS011;69649;53.712;9.680;2024-03-02T00:00:25;17.67;;;10.53;;
7875;SDS011;69649;53.712;9.680;2024-03-02T00:02:52;15.97;;;9.20;;
7875;SDS011;69649;53.712;9.680;2024-03-02T00:05:19;15.33;;;10.27;;
7875;SDS011;69649;53.712;9.680;2024-03-02T00:07:48;15.70;;;8.97;;
7875;SDS011;69649;53.712;9.680;2024-03-02T00:10:16;16.37;;;9.47;;
7875;SDS011;69649;53.712;9.680;2024-03-02T00:12:44;16.57;;;10.53;;
7875;SDS011;69649;53.712;9.680;2024-03-02T00:18:05;18.57;;;10.30;;
7875;SDS011;69649;53.712;9.680;2024-03-02T00:20:31;16.93;;;9.87;;
7875;SDS011;69649;53.712;9.680;2024-03-02T00:22:59;18.60;;;10.63;;
7875;SDS011;69649;53.712;9.680;2024-03-02T00:25:26;20.50;;;10.57;;
7875;SDS011;69649;53.712;9.680;2024-03-02T00:27:52;18.97;;;9.87;;
7875;SDS011;69649;53.712;9.680;2024-03-02T00:33:06;17.57;;;10.17;;
7875;SDS011;69649;53.712;9.680;2024-03-02T00:35:32;16.53;;;9.77;;
7875;SDS011;69649;53.712;9.680;2024-03-02T00:38:02;15.47;;;9.67;;
7875;SDS011;69649;53.712;9.680;2024-03-02T00:40:32;16.80;;;8.80;;
7875;SDS011;69649;53.712;9.680;2024-03-02T00:42:58;17.87;;;9.90;;
7875;SDS011;69649;53.712;9.680;2024-03-02T00:45:25;16.53;;;9.50;;
7875;SDS011;69649;53.712;9.680;2024-03-02T00:47:51;20.30;;;9.83;;
7875;SDS011;69649;53.712;9.680;2024-03-02T00:50:18;17.60;;;10.23;;
7875;SDS011;69649;53.712;9.680;2024-03-02T00:52:44;16.77;;;9.83;;
7875;SDS011;69649;53.712;9.680;2024-03-02T00:55:11;21.20;;;10.50;;
7875;SDS011;69649;53.712;9.680;2024-03-02T00:57:37;16.20;;;9.90;;
7875;SDS011;69649;53.712;9.680;2024-03-02T01:00:03;17.87;;;10.47;;
7875;SDS011;69649;53.712;9.680;2024-03-02T01:02:31;20.67;;;10.93;;
7875;SDS011;69649;53.712;9.680;2024-03-02T01:04:57;16.33;;;9.93;;
7875;SDS011;69649;53.712;9.680;2024-03-02T01:07:23;17.07;;;9.90;;
7875;SDS011;69649;53.712;9.680;2024-03-02T01:09:49;16.10;;;9.63;;
7875;SDS011;69649;53.712;9.680;2024-03-02T01:12:14;15.43;;;9.93;;
7875;SDS011;69649;53.712;9.680;2024-03-02T01:14:40;15.03;;;10.47;;
7875;SDS011;69649;53.712;9.680;2024-03-02T01:17:06;18.67;;;10.60;;
7875;SDS011;69649;53.712;9.680;2024-03-02T01:19:32;19.17;;;10.43;;
7875;SDS011;69649;53.712;9.680;2024-03-02T01:21:57;16.27;;;9.50;;
7875;SDS011;69649;53.712;9.680;2024-03-02T01:24:23;18.43;;;9.87;;
7875;SDS011;69649;53.712;9.680;2024-03-02T01:26:49;16.83;;;9.33;;
7875;SDS011;69649;53.712;9.680;2024-03-02T01:29:15;16.07;;;10.30;;
7875;SDS011;69649;53.712;9.680;2024-03-02T01:31:40;20.63;;;10.37;;
7875;SDS011;69649;53.712;9.680;2024-03-02T01:34:08;15.33;;;9.67;;
7875;SDS011;69649;53.712;9.680;2024-03-02T01:36:34;18.70;;;11.17;;
7875;SDS011;69649;53.712;9.680;2024-03-02T01:38:59;19.80;;;10.23;;
7875;SDS011;69649;53.712;9.680;2024-03-02T01:41:26;15.83;;;10.30;;
7875;SDS011;69649;53.712;9.680;2024-03-02T01:43:52;18.33;;;9.70;;
7875;SDS011;69649;53.712;9.680;2024-03-02T01:46:18;16.10;;;9.17;;
7875;SDS011;69649;53.712;9.680;2024-03-02T01:48:44;15.30;;;9.67;;
7875;SDS011;69649;53.712;9.680;2024-03-02T01:51:10;18.93;;;9.83;;
7875;SDS011;69649;53.712;9.680;2024-03-02T01:53:36;19.23;;;10.30;;
7875;SDS011;69649;53.712;9.680;2024-03-02T01:56:02;17.27;;;9.30;;
7875;SDS011;69649;53.712;9.680;2024-03-02T01:58:29;17.53;;;9.83;;
7875;SDS011;69649;53.712;9.680;2024-03-02T02:00:54;14.83;;;9.90;;
7875;SDS011;69649;53.712;9.680;2024-03-02T02:03:20;16.73;;;10.10;;
7875;SDS011;69649;53.712;9.680;2024-03-02T02:05:46;19.30;;;10.43;;
7875;SDS011;69649;53.712;9.680;2024-03-02T02:08:13;19.53;;;11.13;;
7875;SDS011;69649;53.712;9.680;2024-03-02T02:10:39;20.30;;;10.90;;
7875;SDS011;69649;53.712;9.680;2024-03-02T02:13:05;19.13;;;10.83;;
7875;SDS011;69649;53.712;9.680;2024-03-02T02:15:31;20.07;;;11.13;;
7875;SDS011;69649;53.712;9.680;2024-03-02T02:17:57;22.13;;;10.13;;
7875;SDS011;69649;53.712;9.680;2024-03-02T02:20:24;23.57;;;11.63;;
7875;SDS011;69649;53.712;9.680;2024-03-02T02:23:00;21.43;;;11.17;;
7875;SDS011;69649;53.712;9.680;2024-03-02T02:25:29;20.37;;;10.60;;
7875;SDS011;69649;53.712;9.680;2024-03-02T02:27:55;20.80;;;11.23;;
7875;SDS011;69649;53.712;9.680;2024-03-02T02:30:26;22.93;;;11.53;;
7875;SDS011;69649;53.712;9.680;2024-03-02T02:32:50;21.40;;;12.50;;
7875;SDS011;69649;53.712;9.680;2024-03-02T02:35:16;23.70;;;12.87;;
7875;SDS011;69649;53.712;9.680;2024-03-02T02:37:42;24.63;;;14.67;;
7875;SDS011;69649;53.712;9.680;2024-03-02T02:40:08;23.77;;;12.27;;
7875;SDS011;69649;53.712;9.680;2024-03-02T02:42:34;26.47;;;12.27;;
7875;SDS011;69649;53.712;9.680;2024-03-02T02:45:00;25.07;;;13.10;;
7875;SDS011;69649;53.712;9.680;2024-03-02T02:47:26;22.00;;;12.67;;
7875;SDS011;69649;53.712;9.680;2024-03-02T02:49:52;21.87;;;12.37;;
7875;SDS011;69649;53.712;9.680;2024-03-02T02:52:18;26.13;;;12.37;;
7875;SDS011;69649;53.712;9.680;2024-03-02T02:54:44;22.40;;;12.83;;
7875;SDS011;69649;53.712;9.680;2024-03-02T02:57:09;23.63;;;12.57;;
7875;SDS011;69649;53.712;9.680;2024-03-02T02:59:35;23.10;;;12.33;;
7875;SDS011;69649;53.712;9.680;2024-03-02T03:02:01;21.00;;;12.40;;
7875;SDS011;69649;53.712;9.680;2024-03-02T03:04:27;21.27;;;12.90;;
7875;SDS011;69649;53.712;9.680;2024-03-02T03:06:52;24.00;;;12.20;;
7875;SDS011;69649;53.712;9.680;2024-03-02T03:09:18;23.13;;;13.03;;
7875;SDS011;69649;53.712;9.680;2024-03-02T03:11:44;19.67;;;12.00;;
7875;SDS011;69649;53.712;9.680;2024-03-02T03:14:10;21.73;;;12.80;;
7875;SDS011;69649;53.712;9.680;2024-03-02T03:16:36;23.10;;;13.53;;
7875;SDS011;69649;53.712;9.680;2024-03-02T03:19:01;22.57;;;12.73;;
7875;SDS011;69649;53.712;9.680;2024-03-02T03:21:27;24.00;;;14.03;;
7875;SDS011;69649;53.712;9.680;2024-03-02T03:23:53;24.77;;;13.40;;
7875;SDS011;69649;53.712;9.680;2024-03-02T03:26:19;24.20;;;13.53;;
7875;SDS011;69649;53.712;9.680;2024-03-02T03:28:45;26.27;;;13.63;;
7875;SDS011;69649;53.712;9.680;2024-03-02T03:31:10;31.63;;;15.47;;
7875;SDS011;69649;53.712;9.680;2024-03-02T03:33:36;29.67;;;14.30;;
7875;SDS011;69649;53.712;9.680;2024-03-02T03:36:02;25.07;;;12.73;;
7875;SDS011;69649;53.712;9.680;2024-03-02T03:38:28;26.53;;;13.20;;
7875;SDS011;69649;53.712;9.680;2024-03-02T03:40:55;25.20;;;14.27;;
7875;SDS011;69649;53.712;9.680;2024-03-02T03:43:21;27.57;;;14.57;;
7875;SDS011;69649;53.712;9.680;2024-03-02T03:45:47;25.40;;;13.17;;
7875;SDS011;69649;53.712;9.680;2024-03-02T03:48:13;25.70;;;13.60;;
7875;SDS011;69649;53.712;9.680;2024-03-02T03:50:38;27.40;;;14.40;;
7875;SDS011;69649;53.712;9.680;2024-03-02T03:53:05;22.83;;;13.60;;
7875;SDS011;69649;53.712;9.680;2024-03-02T03:55:30;27.17;;;13.67;;
7875;SDS011;69649;53.712;9.680;2024-03-02T03:57:56;26.57;;;15.10;;
7875;SDS011;69649;53.712;9.680;2024-03-02T04:00:22;24.37;;;13.10;;
7875;SDS011;69649;53.712;9.680;2024-03-02T04:02:47;26.67;;;12.80;;
7875;SDS011;69649;53.712;9.680;2024-03-02T04:05:13;28.37;;;14.30;;
7875;SDS011;69649;53.712;9.680;2024-03-02T04:07:39;27.83;;;14.30;;
7875;SDS011;69649;53.712;9.680;2024-03-02T04:10:06;25.90;;;14.20;;
7875;SDS011;69649;53.712;9.680;2024-03-02T04:12:34;25.33;;;13.30;;
7875;SDS011;69649;53.712;9.680;2024-03-02T04:15:01;24.13;;;14.00;;
7875;SDS011;69649;53.712;9.680;2024-03-02T04:17:27;25.17;;;12.17;;
7875;SDS011;69649;53.712;9.680;2024-03-02T04:19:53;24.17;;;13.90;;
7875;SDS011;69649;53.712;9.680;2024-03-02T04:22:18;24.50;;;13.57;;
7875;SDS011;69649;53.712;9.680;2024-03-02T04:24:44;25.47;;;14.37;;
7875;SDS011;69649;53.712;9.680;2024-03-02T04:27:10;22.63;;;12.90;;
7875;SDS011;69649;53.712;9.680;2024-03-02T04:29:35;34.57;;;15.10;;
7875;SDS011;69649;53.712;9.680;2024-03-02T04:32:01;26.23;;;14.20;;
7875;SDS011;69649;53.712;9.680;2024-03-02T04:34:27;26.13;;;15.13;;
7875;SDS011;69649;53.712;9.680;2024-03-02T04:36:53;24.40;;;13.43;;
7875;SDS011;69649;53.712;9.680;2024-03-02T04:39:18;28.10;;;13.77;;
7875;SDS011;69649;53.712;9.680;2024-03-02T04:41:44;27.37;;;14.23;;
7875;SDS011;69649;53.712;9.680;2024-03-02T04:44:10;26.13;;;14.80;;
7875;SDS011;69649;53.712;9.680;2024-03-02T04:46:36;30.83;;;14.40;;
7875;SDS011;69649;53.712;9.680;2024-03-02T04:49:01;25.90;;;13.97;;
7875;SDS011;69649;53.712;9.680;2024-03-02T04:51:27;25.27;;;13.83;;
7875;SDS011;69649;53.712;9.680;2024-03-02T04:53:53;26.10;;;14.10;;
7875;SDS011;69649;53.712;9.680;2024-03-02T04:56:19;25.27;;;13.87;;
7875;SDS011;69649;53.712;9.680;2024-03-02T04:58:47;29.40;;;14.63;;
7875;SDS011;69649;53.712;9.680;2024-03-02T05:01:12;25.97;;;15.20;;
7875;SDS011;69649;53.712;9.680;2024-03-02T05:03:38;29.57;;;14.17;;
7875;SDS011;69649;53.712;9.680;2024-03-02T05:06:04;23.87;;;13.53;;
7875;SDS011;69649;53.712;9.680;2024-03-02T05:08:29;24.97;;;13.47;;
7875;SDS011;69649;53.712;9.680;2024-03-02T05:10:55;26.60;;;13.80;;
7875;SDS011;69649;53.712;9.680;2024-03-02T05:13:23;26.60;;;14.03;;
7875;SDS011;69649;53.712;9.680;2024-03-02T05:15:49;29.47;;;14.50;;
7875;SDS011;69649;53.712;9.680;2024-03-02T05:18:14;23.57;;;13.07;;
7875;SDS011;69649;53.712;9.680;2024-03-02T05:20:40;29.17;;;14.80;;
7875;SDS011;69649;53.712;9.680;2024-03-02T05:23:06;26.00;;;13.77;;
7875;SDS011;69649;53.712;9.680;2024-03-02T05:25:31;29.47;;;14.50;;
7875;SDS011;69649;53.712;9.680;2024-03-02T05:27:58;26.20;;;14.87;;
7875;SDS011;69649;53.712;9.680;2024-03-02T05:30:23;26.90;;;14.90;;
7875;SDS011;69649;53.712;9.680;2024-03-02T05:32:51;24.30;;;13.90;;
7875;SDS011;69649;53.712;9.680;2024-03-02T05:35:17;32.47;;;15.13;;
7875;SDS011;69649;53.712;9.680;2024-03-02T05:37:43;24.93;;;14.00;;
7875;SDS011;69649;53.712;9.680;2024-03-02T05:40:09;30.57;;;15.07;;
7875;SDS011;69649;53.712;9.680;2024-03-02T05:42:36;32.13;;;15.73;;
7875;SDS011;69649;53.712;9.680;2024-03-02T05:45:02;24.73;;;14.40;;
7875;SDS011;69649;53.712;9.680;2024-03-02T05:47:28;28.27;;;14.87;;
7875;SDS011;69649;53.712;9.680;2024-03-02T05:49:54;26.80;;;14.17;;
7875;SDS011;69649;53.712;9.680;2024-03-02T05:52:20;30.87;;;15.07;;
7875;SDS011;69649;53.712;9.680;2024-03-02T05:54:46;28.53;;;14.47;;
7875;SDS011;69649;53.712;9.680;2024-03-02T05:57:12;25.67;;;13.97;;
7875;SDS011;69649;53.712;9.680;2024-03-02T05:59:56;29.87;;;14.07;;
7875;SDS011;69649;53.712;9.680;2024-03-02T06:02:22;25.33;;;14.63;;
7875;SDS011;69649;53.712;9.680;2024-03-02T06:04:47;25.90;;;13.33;;
7875;SDS011;69649;53.712;9.680;2024-03-02T06:07:13;29.07;;;13.47;;
7875;SDS011;69649;53.712;9.680;2024-03-02T06:09:39;25.40;;;13.20;;
7875;SDS011;69649;53.712;9.680;2024-03-02T06:12:06;22.03;;;13.20;;
7875;SDS011;69649;53.712;9.680;2024-03-02T06:14:32;26.60;;;14.40;;
7875;SDS011;69649;53.712;9.680;2024-03-02T06:16:58;23.27;;;13.77;;
7875;SDS011;69649;53.712;9.680;2024-03-02T06:19:25;29.07;;;14.93;;
7875;SDS011;69649;53.712;9.680;2024-03-02T06:21:50;28.50;;;14.53;;
7875;SDS011;69649;53.712;9.680;2024-03-02T06:24:16;23.23;;;13.33;;
7875;SDS011;69649;53.712;9.680;2024-03-02T06:26:42;30.43;;;15.10;;
7875;SDS011;69649;53.712;9.680;2024-03-02T06:29:07;29.00;;;14.60;;
7875;SDS011;69649;53.712;9.680;2024-03-02T06:31:33;25.93;;;14.47;;
7875;SDS011;69649;53.712;9.680;2024-03-02T06:33:59;26.17;;;13.23;;
7875;SDS011;69649;53.712;9.680;2024-03-02T06:36:25;24.57;;;13.63;;
7875;SDS011;69649;53.712;9.680;2024-03-02T06:38:51;25.63;;;13.60;;
7875;SDS011;69649;53.712;9.680;2024-03-02T06:41:16;26.57;;;14.17;;
7875;SDS011;69649;53.712;9.680;2024-03-02T06:43:42;27.77;;;14.80;;
7875;SDS011;69649;53.712;9.680;2024-03-02T06:46:08;24.80;;;13.40;;
7875;SDS011;69649;53.712;9.680;2024-03-02T06:48:34;23.00;;;13.77;;
7875;SDS011;69649;53.712;9.680;2024-03-02T06:51:00;24.40;;;13.33;;
7875;SDS011;69649;53.712;9.680;2024-03-02T06:53:26;22.63;;;12.83;;
7875;SDS011;69649;53.712;9.680;2024-03-02T06:55:52;25.00;;;13.17;;
7875;SDS011;69649;53.712;9.680;2024-03-02T06:58:18;20.70;;;12.10;;
7875;SDS011;69649;53.712;9.680;2024-03-02T07:00:44;25.70;;;15.97;;
7875;SDS011;69649;53.712;9.680;2024-03-02T07:03:09;25.03;;;13.30;;
7875;SDS011;69649;53.712;9.680;2024-03-02T07:05:35;23.87;;;13.27;;
7875;SDS011;69649;53.712;9.680;2024-03-02T07:08:01;24.17;;;13.60;;
7875;SDS011;69649;53.712;9.680;2024-03-02T07:10:28;26.50;;;12.87;;
7875;SDS011;69649;53.712;9.680;2024-03-02T07:12:54;28.17;;;12.70;;
7875;SDS011;69649;53.712;9.680;2024-03-02T07:15:19;28.77;;;13.57;;
7875;SDS011;69649;53.712;9.680;2024-03-02T07:18:03;26.87;;;12.67;;
7875;SDS011;69649;53.712;9.680;2024-03-02T07:20:29;25.23;;;13.07;;
7875;SDS011;69649;53.712;9.680;2024-03-02T07:22:55;23.43;;;13.93;;
7875;SDS011;69649;53.712;9.680;2024-03-02T07:25:21;22.70;;;12.67;;
7875;SDS011;69649;53.712;9.680;2024-03-02T07:27:47;24.27;;;13.60;;
7875;SDS011;69649;53.712;9.680;2024-03-02T07:30:13;23.43;;;12.43;;
7875;SDS011;69649;53.712;9.680;2024-03-02T07:32:41;30.07;;;13.67;;
7875;SDS011;69649;53.712;9.680;2024-03-02T07:35:09;25.40;;;13.00;;
7875;SDS011;69649;53.712;9.680;2024-03-02T07:37:35;24.87;;;12.80;;
7875;SDS011;69649;53.712;9.680;2024-03-02T07:40:01;25.23;;;14.50;;
7875;SDS011;69649;53.712;9.680;2024-03-02T07:42:26;21.27;;;12.73;;
7875;SDS011;69649;53.712;9.680;2024-03-02T07:44:52;22.60;;;12.93;;
7875;SDS011;69649;53.712;9.680;2024-03-02T07:47:18;23.57;;;12.70;;
7875;SDS011;69649;53.712;9.680;2024-03-02T07:49:44;23.00;;;13.03;;
7875;SDS011;69649;53.712;9.680;2024-03-02T07:52:11;21.73;;;13.37;;
7875;SDS011;69649;53.712;9.680;2024-03-02T07:54:37;21.93;;;12.37;;
7875;SDS011;69649;53.712;9.680;2024-03-02T07:57:03;22.03;;;11.67;;
7875;SDS011;69649;53.712;9.680;2024-03-02T07:59:29;24.37;;;13.47;;
7875;SDS011;69649;53.712;9.680;2024-03-02T08:01:55;21.53;;;12.27;;
7875;SDS011;69649;53.712;9.680;2024-03-02T08:04:20;24.63;;;13.37;;
7875;SDS011;69649;53.712;9.680;2024-03-02T08:06:46;24.07;;;12.37;;
7875;SDS011;69649;53.712;9.680;2024-03-02T08:09:12;23.93;;;12.60;;
7875;SDS011;69649;53.712;9.680;2024-03-02T08:11:38;21.20;;;12.00;;
7875;SDS011;69649;53.712;9.680;2024-03-02T08:14:04;24.60;;;12.80;;
7875;SDS011;69649;53.712;9.680;2024-03-02T08:16:30;23.03;;;12.23;;
7875;SDS011;69649;53.712;9.680;2024-03-02T08:18:56;18.57;;;11.77;;
7875;SDS011;69649;53.712;9.680;2024-03-02T08:21:25;23.07;;;13.30;;
7875;SDS011;69649;53.712;9.680;2024-03-02T08:23:51;22.67;;;12.40;;
7875;SDS011;69649;53.712;9.680;2024-03-02T08:26:17;20.67;;;12.13;;
7875;SDS011;69649;53.712;9.680;2024-03-02T08:28:43;19.17;;;11.47;;
7875;SDS011;69649;53.712;9.680;2024-03-02T08:31:09;18.17;;;11.00;;
7875;SDS011;69649;53.712;9.680;2024-03-02T08:33:35;20.17;;;12.30;;
7875;SDS011;69649;53.712;9.680;2024-03-02T08:36:00;19.60;;;10.47;;
7875;SDS011;69649;53.712;9.680;2024-03-02T08:38:27;24.27;;;12.03;;
7875;SDS011;69649;53.712;9.680;2024-03-02T08:40:53;19.20;;;11.13;;
7875;SDS011;69649;53.712;9.680;2024-03-02T08:43:19;22.17;;;11.33;;
7875;SDS011;69649;53.712;9.680;2024-03-02T08:45:45;19.77;;;11.47;;
7875;SDS011;69649;53.712;9.680;2024-03-02T08:48:12;18.43;;;11.23;;
7875;SDS011;69649;53.712;9.680;2024-03-02T08:50:38;19.53;;;11.23;;
7875;SDS011;69649;53.712;9.680;2024-03-02T08:53:04;19.63;;;12.43;;
7875;SDS011;69649;53.712;9.680;2024-03-02T08:55:30;19.97;;;10.93;;
7875;SDS011;69649;53.712;9.680;2024-03-02T08:57:56;21.53;;;11.80;;
7875;SDS011;69649;53.712;9.680;2024-03-02T09:00:22;20.70;;;11.10;;
7875;SDS011;69649;53.712;9.680;2024-03-02T09:02:49;23.17;;;11.60;;
7875;SDS011;69649;53.712;9.680;2024-03-02T09:05:14;16.67;;;10.13;;
7875;SDS011;69649;53.712;9.680;2024-03-02T09:07:41;16.77;;;10.37;;
7875;SDS011;69649;53.712;9.680;2024-03-02T09:12:52;17.20;;;11.13;;
7875;SDS011;69649;53.712;9.680;2024-03-02T09:15:18;17.10;;;10.13;;
7875;SDS011;69649;53.712;9.680;2024-03-02T09:17:43;18.20;;;10.40;;
7875;SDS011;69649;53.712;9.680;2024-03-02T09:20:10;18.07;;;9.93;;
7875;SDS011;69649;53.712;9.680;2024-03-02T09:22:36;18.80;;;10.77;;
7875;SDS011;69649;53.712;9.680;2024-03-02T09:25:02;18.60;;;10.40;;
7875;SDS011;69649;53.712;9.680;2024-03-02T09:27:28;15.10;;;8.40;;
7875;SDS011;69649;53.712;9.680;2024-03-02T09:29:54;17.27;;;10.40;;
7875;SDS011;69649;53.712;9.680;2024-03-02T09:32:19;16.40;;;9.43;;
7875;SDS011;69649;53.712;9.680;2024-03-02T09:34:45;15.77;;;9.60;;
7875;SDS011;69649;53.712;9.680;2024-03-02T09:37:13;11.60;;;7.67;;
7875;SDS011;69649;53.712;9.680;2024-03-02T09:39:39;16.87;;;9.90;;
7875;SDS011;69649;53.712;9.680;2024-03-02T09:42:05;16.60;;;9.27;;
7875;SDS011;69649;53.712;9.680;2024-03-02T09:44:31;17.20;;;9.17;;
7875;SDS011;69649;53.712;9.680;2024-03-02T09:46:58;13.60;;;7.43;;
7875;SDS011;69649;53.712;9.680;2024-03-02T09:49:24;13.40;;;8.37;;
7875;SDS011;69649;53.712;9.680;2024-03-02T09:51:50;13.20;;;7.37;;
7875;SDS011;69649;53.712;9.680;2024-03-02T09:54:16;15.73;;;9.07;;
7875;SDS011;69649;53.712;9.680;2024-03-02T09:56:42;13.77;;;9.40;;
7875;SDS011;69649;53.712;9.680;2024-03-02T09:59:08;14.73;;;9.00;;
7875;SDS011;69649;53.712;9.680;2024-03-02T10:01:34;14.73;;;8.60;;
7875;SDS011;69649;53.712;9.680;2024-03-02T10:04:00;16.43;;;9.10;;
7875;SDS011;69649;53.712;9.680;2024-03-02T10:06:28;10.27;;;6.63;;
7875;SDS011;69649;53.712;9.680;2024-03-02T10:08:54;13.20;;;8.73;;
7875;SDS011;69649;53.712;9.680;2024-03-02T10:11:31;12.30;;;7.93;;
7875;SDS011;69649;53.712;9.680;2024-03-02T10:16:34;12.80;;;8.00;;
7875;SDS011;69649;53.712;9.680;2024-03-02T10:19:17;13.93;;;7.47;;
7875;SDS011;69649;53.712;9.680;2024-03-02T10:21:49;12.57;;;7.60;;
7875;SDS011;69649;53.712;9.680;2024-03-02T10:24:17;12.20;;;7.80;;
7875;SDS011;69649;53.712;9.680;2024-03-02T10:26:44;14.27;;;7.90;;
7875;SDS011;69649;53.712;9.680;2024-03-02T10:29:10;12.70;;;8.33;;
7875;SDS011;69649;53.712;9.680;2024-03-02T10:31:39;13.07;;;8.93;;
7875;SDS011;69649;53.712;9.680;2024-03-02T10:34:10;11.17;;;7.67;;
7875;SDS011;69649;53.712;9.680;2024-03-02T10:36:40;15.83;;;7.93;;
7875;SDS011;69649;53.712;9.680;2024-03-02T10:39:09;12.60;;;7.43;;
7875;SDS011;69649;53.712;9.680;2024-03-02T10:41:36;11.50;;;7.47;;
7875;SDS011;69649;53.712;9.680;2024-03-02T10:44:03;14.47;;;8.20;;
7875;SDS011;69649;53.712;9.680;2024-03-02T10:46:32;11.23;;;7.10;;
7875;SDS011;69649;53.712;9.680;2024-03-02T10:48:59;16.10;;;8.50;;
7875;SDS011;69649;53.712;9.680;2024-03-02T10:51:26;13.80;;;9.30;;
7875;SDS011;69649;53.712;9.680;2024-03-02T10:53:57;14.37;;;7.10;;
7875;SDS011;69649;53.712;9.680;2024-03-02T11:01:50;12.97;;;7.57;;
7875;SDS011;69649;53.712;9.680;2024-03-02T11:04:24;11.80;;;7.20;;
7875;SDS011;69649;53.712;9.680;2024-03-02T11:06:51;10.47;;;6.93;;
7875;SDS011;69649;53.712;9.680;2024-03-02T11:09:22;14.47;;;7.37;;
7875;SDS011;69649;53.712;9.680;2024-03-02T11:11:56;16.87;;;8.83;;
7875;SDS011;69649;53.712;9.680;2024-03-02T11:14:30;11.67;;;7.47;;
7875;SDS011;69649;53.712;9.680;2024-03-02T11:16:58;10.20;;;7.10;;
7875;SDS011;69649;53.712;9.680;2024-03-02T11:19:27;10.47;;;6.87;;
7875;SDS011;69649;53.712;9.680;2024-03-02T11:21:53;13.63;;;6.10;;
7875;SDS011;69649;53.712;9.680;2024-03-02T11:26:53;12.83;;;6.80;;
7875;SDS011;69649;53.712;9.680;2024-03-02T11:29:53;13.53;;;7.57;;
7875;SDS011;69649;53.712;9.680;2024-03-02T11:32:05;10.53;;;5.80;;
7875;SDS011;69649;53.712;9.680;2024-03-02T11:34:33;10.23;;;5.87;;
7875;SDS011;69649;53.712;9.680;2024-03-02T11:37:03;9.67;;;5.60;;
7875;SDS011;69649;53.712;9.680;2024-03-02T11:39:29;12.70;;;6.17;;
7875;SDS011;69649;53.712;9.680;2024-03-02T11:41:56;10.77;;;6.07;;
7875;SDS011;69649;53.712;9.680;2024-03-02T11:44:29;8.57;;;5.20;;
7875;SDS011;69649;53.712;9.680;2024-03-02T11:47:01;10.23;;;6.03;;
7875;SDS011;69649;53.712;9.680;2024-03-02T11:52:14;12.53;;;5.97;;
7875;SDS011;69649;53.712;9.680;2024-03-02T11:54:43;9.87;;;5.87;;
7875;SDS011;69649;53.712;9.680;2024-03-02T11:57:20;10.03;;;4.90;;
7875;SDS011;69649;53.712;9.680;2024-03-02T11:59:51;13.33;;;6.03;;
7875;SDS011;69649;53.712;9.680;2024-03-02T12:02:18;9.57;;;5.90;;
7875;SDS011;69649;53.712;9.680;2024-03-02T12:04:45;11.23;;;6.60;;
7875;SDS011;69649;53.712;9.680;2024-03-02T12:07:13;9.77;;;5.77;;
7875;SDS011;69649;53.712;9.680;2024-03-02T12:09:49;10.03;;;5.67;;
7875;SDS011;69649;53.712;9.680;2024-03-02T12:12:29;10.80;;;6.10;;
7875;SDS011;69649;53.712;9.680;2024-03-02T12:14:54;7.27;;;5.60;;
7875;SDS011;69649;53.712;9.680;2024-03-02T12:17:21;11.07;;;5.33;;
7875;SDS011;69649;53.712;9.680;2024-03-02T12:19:48;9.93;;;5.57;;
7875;SDS011;69649;53.712;9.680;2024-03-02T12:22:13;12.50;;;6.70;;
7875;SDS011;69649;53.712;9.680;2024-03-02T12:24:41;8.07;;;5.67;;
7875;SDS011;69649;53.712;9.680;2024-03-02T12:27:07;12.17;;;5.40;;
7875;SDS011;69649;53.712;9.680;2024-03-02T12:29:33;9.50;;;5.03;;
7875;SDS011;69649;53.712;9.680;2024-03-02T12:31:59;9.13;;;4.57;;
7875;SDS011;69649;53.712;9.680;2024-03-02T12:34:27;6.87;;;4.80;;
7875;SDS011;69649;53.712;9.680;2024-03-02T12:36:53;9.20;;;6.00;;
7875;SDS011;69649;53.712;9.680;2024-03-02T12:39:19;9.60;;;5.70;;
7875;SDS011;69649;53.712;9.680;2024-03-02T12:41:48;7.53;;;4.97;;
7875;SDS011;69649;53.712;9.680;2024-03-02T12:44:20;9.70;;;5.47;;
7875;SDS011;69649;53.712;9.680;2024-03-02T12:46:43;8.07;;;4.77;;
7875;SDS011;69649;53.712;9.680;2024-03-02T12:49:10;8.47;;;5.27;;
7875;SDS011;69649;53.712;9.680;2024-03-02T12:51:37;8.17;;;4.90;;
7875;SDS011;69649;53.712;9.680;2024-03-02T12:54:10;7.23;;;4.53;;
7875;SDS011;69649;53.712;9.680;2024-03-02T12:56:36;6.20;;;3.90;;
7875;SDS011;69649;53.712;9.680;2024-03-02T12:59:03;7.80;;;4.87;;
7875;SDS011;69649;53.712;9.680;2024-03-02T13:01:29;7.37;;;4.27;;
7875;SDS011;69649;53.712;9.680;2024-03-02T13:03:57;8.47;;;4.40;;
7875;SDS011;69649;53.712;9.680;2024-03-02T13:06:24;8.87;;;4.83;;
7875;SDS011;69649;53.712;9.680;2024-03-02T13:08:53;4.23;;;3.57;;
7875;SDS011;69649;53.712;9.680;2024-03-02T13:11:20;10.97;;;5.60;;
7875;SDS011;69649;53.712;9.680;2024-03-02T13:13:48;6.57;;;4.73;;
7875;SDS011;69649;53.712;9.680;2024-03-02T13:16:15;6.90;;;4.83;;
7875;SDS011;69649;53.712;9.680;2024-03-02T13:18:41;7.27;;;4.73;;
7875;SDS011;69649;53.712;9.680;2024-03-02T13:21:08;7.23;;;4.37;;
7875;SDS011;69649;53.712;9.680;2024-03-02T13:23:34;10.60;;;4.80;;
7875;SDS011;69649;53.712;9.680;2024-03-02T13:26:00;8.80;;;5.23;;
7875;SDS011;69649;53.712;9.680;2024-03-02T13:28:26;7.70;;;4.37;;
7875;SDS011;69649;53.712;9.680;2024-03-02T13:30:53;8.73;;;4.67;;
7875;SDS011;69649;53.712;9.680;2024-03-02T13:33:19;8.17;;;4.43;;
7875;SDS011;69649;53.712;9.680;2024-03-02T13:35:47;7.70;;;4.10;;
7875;SDS011;69649;53.712;9.680;2024-03-02T13:38:12;5.67;;;3.87;;
7875;SDS011;69649;53.712;9.680;2024-03-02T13:40:38;11.40;;;4.87;;
7875;SDS011;69649;53.712;9.680;2024-03-02T13:43:04;6.57;;;4.37;;
7875;SDS011;69649;53.712;9.680;2024-03-02T13:45:30;7.17;;;4.00;;
7875;SDS011;69649;53.712;9.680;2024-03-02T13:47:56;6.83;;;4.10;;
7875;SDS011;69649;53.712;9.680;2024-03-02T13:50:21;7.60;;;4.30;;
7875;SDS011;69649;53.712;9.680;2024-03-02T13:52:47;7.13;;;4.70;;
7875;SDS011;69649;53.712;9.680;2024-03-02T13:55:13;7.23;;;5.20;;
7875;SDS011;69649;53.712;9.680;2024-03-02T13:57:39;8.23;;;5.60;;
7875;SDS011;69649;53.712;9.680;2024-03-02T14:00:05;8.57;;;5.10;;
7875;SDS011;69649;53.712;9.680;2024-03-02T14:02:34;8.93;;;5.10;;
7875;SDS011;69649;53.712;9.680;2024-03-02T14:05:00;6.20;;;4.70;;
7875;SDS011;69649;53.712;9.680;2024-03-02T14:07:26;8.10;;;5.23;;
7875;SDS011;69649;53.712;9.680;2024-03-02T14:09:52;9.43;;;4.80;;
7875;SDS011;69649;53.712;9.680;2024-03-02T14:12:17;8.57;;;4.80;;
7875;SDS011;69649;53.712;9.680;2024-03-02T14:14:43;7.60;;;4.57;;
7875;SDS011;69649;53.712;9.680;2024-03-02T14:17:09;8.70;;;5.20;;
7875;SDS011;69649;53.712;9.680;2024-03-02T14:19:37;7.37;;;4.60;;
7875;SDS011;69649;53.712;9.680;2024-03-02T14:22:02;7.00;;;4.53;;
7875;SDS011;69649;53.712;9.680;2024-03-02T14:24:28;8.03;;;4.93;;
7875;SDS011;69649;53.712;9.680;2024-03-02T14:26:54;6.93;;;4.40;;
7875;SDS011;69649;53.712;9.680;2024-03-02T14:29:22;10.33;;;5.03;;
7875;SDS011;69649;53.712;9.680;2024-03-02T14:31:48;7.37;;;4.60;;
7875;SDS011;69649;53.712;9.680;2024-03-02T14:34:14;6.60;;;5.03;;
7875;SDS011;69649;53.712;9.680;2024-03-02T14:36:40;9.10;;;5.37;;
7875;SDS011;69649;53.712;9.680;2024-03-02T14:39:08;6.87;;;4.50;;
7875;SDS011;69649;53.712;9.680;2024-03-02T14:41:38;8.33;;;4.80;;
7875;SDS011;69649;53.712;9.680;2024-03-02T14:44:04;9.37;;;4.80;;
7875;SDS011;69649;53.712;9.680;2024-03-02T14:46:30;10.33;;;5.73;;
7875;SDS011;69649;53.712;9.680;2024-03-02T14:48:57;7.13;;;4.63;;
7875;SDS011;69649;53.712;9.680;2024-03-02T14:51:23;7.83;;;4.63;;
7875;SDS011;69649;53.712;9.680;2024-03-02T14:53:49;8.80;;;5.47;;
7875;SDS011;69649;53.712;9.680;2024-03-02T14:56:16;8.07;;;5.10;;
7875;SDS011;69649;53.712;9.680;2024-03-02T14:58:42;6.00;;;4.57;;
7875;SDS011;69649;53.712;9.680;2024-03-02T15:01:07;6.33;;;4.40;;